Thursday, August 28, 2014, 9:30 PM EDT

KJYO, Leesburg / Godfrey

Location: Leesburg, VA, United States Lat: 39.083
Local Time: 9:30 PM EDT ( 1:30 GMT) Lon: -77.567
Time Zone: US/Eastern Elev: 390 ft

Show me the last for .
Show Decoded

2014-08-28 21:15 METAR KJYO 290115Z AUTO 02004KT 10SM CLR 22/14 A3007 RMK AO2 =
2014-08-28 20:55 METAR KJYO 290055Z AUTO 02004KT 10SM CLR 23/14 A3006 RMK AO2 =
2014-08-28 20:35 METAR KJYO 290035Z AUTO 02004KT 10SM CLR 23/14 A3005 RMK AO2 =
2014-08-28 20:15 METAR KJYO 290015Z AUTO 03003KT 10SM CLR 24/14 A3004 RMK AO2 =
2014-08-28 19:55 METAR KJYO 282355Z AUTO 03003KT 10SM CLR 25/14 A3003 RMK AO2 =
2014-08-28 19:35 METAR KJYO 282335Z AUTO 02003KT 10SM CLR 25/14 A3002 RMK AO2 =
2014-08-28 19:15 METAR KJYO 282315Z AUTO 03004KT 10SM CLR 26/13 A3001 RMK AO2 =
2014-08-28 18:55 METAR KJYO 282255Z AUTO 01005KT 10SM CLR 27/13 A3001 RMK AO2 =
2014-08-28 18:35 METAR KJYO 282235Z AUTO 01007KT 10SM CLR 27/12 A3001 RMK AO2 =
2014-08-28 18:15 METAR KJYO 282215Z AUTO 35007KT 10SM CLR 27/13 A3001 RMK AO2 =
2014-08-28 17:55 METAR KJYO 282155Z AUTO 36008KT 10SM CLR 27/13 A3001 RMK AO2 =
2014-08-28 17:35 METAR KJYO 282135Z AUTO 02006KT 10SM CLR 27/13 A3000 RMK AO2 =
2014-08-28 17:15 METAR KJYO 282115Z AUTO 36006KT 10SM CLR 28/15 A3000 RMK AO2 =
2014-08-28 16:55 METAR KJYO 282055Z AUTO 34008KT 10SM CLR 28/15 A2999 RMK AO2 =
2014-08-28 16:35 METAR KJYO 282035Z AUTO 03010KT 10SM CLR 28/15 A2998 RMK AO2 =
2014-08-28 16:15 METAR KJYO 282015Z AUTO 01008KT 10SM SCT050 28/16 A2998 RMK AO2 =
2014-08-28 15:55 METAR KJYO 281955Z AUTO 02004KT 10SM SCT050 27/16 A2998 RMK AO2 =
2014-08-28 15:35 METAR KJYO 281935Z AUTO 34005G14KT 10SM SCT050 27/16 A2999 RMK AO2 =
2014-08-28 15:15 METAR KJYO 281915Z AUTO 36003G14KT 10SM SCT048 27/17 A2999 RMK AO2 =
2014-08-28 14:55 METAR KJYO 281855Z AUTO 36009G14KT 310V030 10SM CLR 27/17 A2999 RMK AO2 =
2014-08-28 14:35 METAR KJYO 281835Z AUTO 34011KT 10SM CLR 27/17 A3000 RMK AO2 =
2014-08-28 14:15 METAR KJYO 281815Z AUTO 35007KT 10SM CLR 27/17 A3001 RMK AO2 =
2014-08-28 13:55 METAR KJYO 281755Z AUTO 34010G14KT 310V020 10SM CLR 27/17 A3001 RMK AO2 =
2014-08-28 13:35 METAR KJYO 281735Z AUTO 01010G15KT 10SM CLR 27/17 A3001 RMK AO2 =
2014-08-28 13:15 METAR KJYO 281715Z AUTO 33012G15KT 10SM CLR 26/17 A3001 RMK AO2 =
2014-08-28 12:55 METAR KJYO 281655Z AUTO 34011G16KT 10SM CLR 26/17 A3001 RMK AO2 =
2014-08-28 12:35 METAR KJYO 281635Z AUTO 35013G20KT 10SM CLR 26/16 A3002 RMK AO2 =
2014-08-28 12:15 METAR KJYO 281615Z AUTO 34008KT 320V020 10SM CLR 26/17 A3002 RMK AO2 =
2014-08-28 11:55 METAR KJYO 281555Z AUTO 32013G16KT 10SM CLR 26/17 A3002 RMK AO2 =
2014-08-28 11:35 METAR KJYO 281535Z AUTO 33009KT 10SM CLR 25/18 A3003 RMK AO2 =
2014-08-28 11:15 METAR KJYO 281515Z AUTO 02008G15KT 10SM CLR 25/17 A3003 RMK AO2 =
2014-08-28 10:55 METAR KJYO 281455Z AUTO 32011G16KT 10SM SCT032 25/18 A3003 RMK AO2 =
2014-08-28 10:35 METAR KJYO 281435Z AUTO 36005KT 10SM SCT032 25/18 A3003 RMK AO2 =
2014-08-28 10:15 METAR KJYO 281415Z AUTO 01009KT 10SM CLR 24/17 A3003 RMK AO2 =
2014-08-28 09:55 METAR KJYO 281355Z AUTO 33010KT 10SM CLR 23/17 A3003 RMK AO2 =
2014-08-28 09:35 METAR KJYO 281335Z AUTO 34006KT 10SM CLR 23/18 A3003 RMK AO2 =
2014-08-28 09:15 METAR KJYO 281315Z AUTO 34010KT 10SM CLR 23/18 A3002 RMK AO2 =
2014-08-28 08:55 METAR KJYO 281255Z AUTO 01008KT 10SM SCT022 23/18 A3003 RMK AO2 =
2014-08-28 08:35 METAR KJYO 281235Z AUTO 33006KT 10SM CLR 22/18 A3002 RMK AO2 =
2014-08-28 08:15 METAR KJYO 281215Z AUTO 34005G10KT 10SM CLR 22/19 A3002 RMK AO2 =
2014-08-28 07:55 METAR KJYO 281155Z AUTO 34006KT 10SM CLR 22/20 A3001 RMK AO2 =
2014-08-28 07:35 METAR KJYO 281135Z AUTO 33007KT 10SM CLR 22/20 A3000 RMK AO2 =
2014-08-28 07:15 METAR KJYO 281115Z AUTO 02005G14KT 10SM CLR 22/20 A3000 RMK AO2 =
2014-08-28 06:55 METAR KJYO 281055Z AUTO 35008KT 10SM CLR 22/20 A2998 RMK AO2 =
2014-08-28 06:35 METAR KJYO 281035Z AUTO 35008KT 10SM CLR 22/20 A2998 RMK AO2 =
2014-08-28 06:15 METAR KJYO 281015Z AUTO 36005KT 10SM CLR 22/20 A2998 RMK AO2 =
2014-08-28 05:55 METAR KJYO 280955Z AUTO 01006KT 10SM CLR 22/20 A2997 RMK AO2 =
2014-08-28 05:35 METAR KJYO 280935Z AUTO 35006KT 10SM CLR 22/21 A2996 RMK AO2 =
2014-08-28 05:15 METAR KJYO 280915Z AUTO 34009KT 10SM CLR 23/21 A2995 RMK AO2 =
2014-08-28 04:55 METAR KJYO 280855Z AUTO 34009KT 10SM CLR 23/21 A2995 RMK AO2 =
2014-08-28 04:35 METAR KJYO 280835Z AUTO 33008KT 10SM CLR 23/21 A2994 RMK AO2 =
2014-08-28 04:15 METAR KJYO 280815Z AUTO 31006KT 10SM CLR 23/21 A2994 RMK AO2 =
2014-08-28 03:55 METAR KJYO 280755Z AUTO 33010KT 10SM CLR 24/22 A2993 RMK AO2 =
2014-08-28 03:35 METAR KJYO 280735Z AUTO 33011KT 10SM CLR 25/22 A2993 RMK AO2 =
2014-08-28 03:10 METAR KJYO 280710Z AUTO 35008KT 10SM CLR 25/22 A2993 RMK AO2 =
2014-08-28 02:55 METAR KJYO 280655Z AUTO 36004KT 10SM CLR 25/22 A2993 RMK AO2 =
2014-08-28 02:35 METAR KJYO 280635Z AUTO 35008KT 10SM CLR 25/22 A2993 RMK AO2 =
2014-08-28 02:15 METAR KJYO 280615Z AUTO 35007KT 10SM CLR 25/22 A2993 RMK AO2 =
2014-08-28 01:55 METAR KJYO 280555Z AUTO 34009KT 10SM CLR 26/22 A2993 RMK AO2 =
2014-08-28 01:35 METAR KJYO 280535Z AUTO 33009KT 10SM CLR 25/22 A2993 RMK AO2 =
2014-08-28 01:15 METAR KJYO 280515Z AUTO 34008KT 10SM CLR 26/22 A2994 RMK AO2 =
2014-08-28 00:55 METAR KJYO 280455Z AUTO 34004KT 10SM CLR 25/22 A2994 RMK AO2 =
2014-08-28 00:35 METAR KJYO 280435Z AUTO 00000KT 10SM CLR 25/22 A2994 RMK AO2 =
2014-08-28 00:15 METAR KJYO 280415Z AUTO 00000KT 10SM CLR 25/22 A2994 RMK AO2 =
2014-08-27 23:55 METAR KJYO 280355Z AUTO 27004KT 10SM CLR 25/22 A2995 RMK AO2 =
2014-08-27 23:35 METAR KJYO 280335Z AUTO 25004KT 10SM CLR 25/23 A2995 RMK AO2 =
2014-08-27 23:15 METAR KJYO 280315Z AUTO 23004KT 10SM CLR 25/23 A2995 RMK AO2 =
2014-08-27 22:55 METAR KJYO 280255Z AUTO 24004KT 10SM SCT050 25/23 A2994 RMK AO2 =
2014-08-27 22:35 METAR KJYO 280235Z AUTO 24004KT 10SM BKN050 25/23 A2994 RMK AO2 =
2014-08-27 22:15 METAR KJYO 280215Z AUTO 24003KT 10SM BKN050 25/23 A2995 RMK AO2 =
2014-08-27 21:35 METAR KJYO 280135Z AUTO 27003KT 10SM CLR 25/23 A2995 RMK AO2 =

Support USWX by starting your Amazon purchase here.